sensor_id;sensor_type;location;lat;lon;timestamp;P1;durP1;ratioP1;P2;durP2;ratioP2
45402;SDS011;47427;51.976;5.326;2023-03-01T00:02:53;16.42;;;13.13;;
45402;SDS011;47427;51.976;5.326;2023-03-01T00:06:15;16.15;;;12.60;;
45402;SDS011;47427;51.976;5.326;2023-03-01T00:09:40;14.98;;;12.13;;
45402;SDS011;47427;51.976;5.326;2023-03-01T00:13:08;16.47;;;13.33;;
45402;SDS011;47427;51.976;5.326;2023-03-01T00:17:17;14.23;;;12.73;;
45402;SDS011;47427;51.976;5.326;2023-03-01T00:20:39;13.15;;;11.43;;
45402;SDS011;47427;51.976;5.326;2023-03-01T00:24:16;16.63;;;12.18;;
45402;SDS011;47427;51.976;5.326;2023-03-01T00:27:43;15.90;;;12.90;;
45402;SDS011;47427;51.976;5.326;2023-03-01T00:31:07;13.30;;;11.90;;
45402;SDS011;47427;51.976;5.326;2023-03-01T00:34:35;16.40;;;12.35;;
45402;SDS011;47427;51.976;5.326;2023-03-01T00:38:19;17.60;;;11.63;;
45402;SDS011;47427;51.976;5.326;2023-03-01T00:41:56;18.70;;;11.00;;
45402;SDS011;47427;51.976;5.326;2023-03-01T00:45:21;12.88;;;11.40;;
45402;SDS011;47427;51.976;5.326;2023-03-01T00:48:54;12.30;;;11.02;;
45402;SDS011;47427;51.976;5.326;2023-03-01T00:52:22;13.88;;;11.40;;
45402;SDS011;47427;51.976;5.326;2023-03-01T00:55:53;12.40;;;11.13;;
45402;SDS011;47427;51.976;5.326;2023-03-01T01:02:53;14.00;;;11.35;;
45402;SDS011;47427;51.976;5.326;2023-03-01T01:06:46;17.98;;;12.20;;
45402;SDS011;47427;51.976;5.326;2023-03-01T01:10:40;14.30;;;11.80;;
45402;SDS011;47427;51.976;5.326;2023-03-01T01:14:12;14.13;;;11.65;;
45402;SDS011;47427;51.976;5.326;2023-03-01T01:18:01;12.80;;;11.10;;
45402;SDS011;47427;51.976;5.326;2023-03-01T01:21:25;13.90;;;11.95;;
45402;SDS011;47427;51.976;5.326;2023-03-01T01:24:50;12.82;;;11.52;;
45402;SDS011;47427;51.976;5.326;2023-03-01T01:28:12;16.25;;;12.77;;
45402;SDS011;47427;51.976;5.326;2023-03-01T01:31:49;15.10;;;12.52;;
45402;SDS011;47427;51.976;5.326;2023-03-01T01:35:27;12.95;;;11.27;;
45402;SDS011;47427;51.976;5.326;2023-03-01T01:38:53;14.68;;;12.23;;
45402;SDS011;47427;51.976;5.326;2023-03-01T01:42:40;16.98;;;11.93;;
45402;SDS011;47427;51.976;5.326;2023-03-01T01:50:01;13.52;;;11.90;;
45402;SDS011;47427;51.976;5.326;2023-03-01T01:53:41;13.18;;;11.70;;
45402;SDS011;47427;51.976;5.326;2023-03-01T01:57:10;17.30;;;12.70;;
45402;SDS011;47427;51.976;5.326;2023-03-01T02:00:40;16.88;;;12.98;;
45402;SDS011;47427;51.976;5.326;2023-03-01T02:04:04;15.73;;;12.43;;
45402;SDS011;47427;51.976;5.326;2023-03-01T02:07:28;16.17;;;13.73;;
45402;SDS011;47427;51.976;5.326;2023-03-01T02:10:51;14.57;;;12.60;;
45402;SDS011;47427;51.976;5.326;2023-03-01T02:14:15;16.42;;;13.45;;
45402;SDS011;47427;51.976;5.326;2023-03-01T02:17:38;18.83;;;13.43;;
45402;SDS011;47427;51.976;5.326;2023-03-01T02:28:42;17.58;;;14.35;;
45402;SDS011;47427;51.976;5.326;2023-03-01T02:32:06;17.05;;;14.18;;
45402;SDS011;47427;51.976;5.326;2023-03-01T02:35:30;22.55;;;14.82;;
45402;SDS011;47427;51.976;5.326;2023-03-01T02:39:22;25.15;;;16.17;;
45402;SDS011;47427;51.976;5.326;2023-03-01T02:42:54;18.13;;;14.32;;
45402;SDS011;47427;51.976;5.326;2023-03-01T02:46:20;21.00;;;15.90;;
45402;SDS011;47427;51.976;5.326;2023-03-01T02:49:45;18.65;;;14.20;;
45402;SDS011;47427;51.976;5.326;2023-03-01T02:53:16;21.33;;;15.20;;
45402;SDS011;47427;51.976;5.326;2023-03-01T02:56:51;21.65;;;15.05;;
45402;SDS011;47427;51.976;5.326;2023-03-01T03:00:20;20.65;;;16.58;;
45402;SDS011;47427;51.976;5.326;2023-03-01T03:04:11;24.92;;;17.85;;
45402;SDS011;47427;51.976;5.326;2023-03-01T03:08:00;22.77;;;16.55;;
45402;SDS011;47427;51.976;5.326;2023-03-01T03:11:29;22.50;;;17.58;;
45402;SDS011;47427;51.976;5.326;2023-03-01T03:14:52;22.35;;;16.50;;
45402;SDS011;47427;51.976;5.326;2023-03-01T03:18:15;23.00;;;16.42;;
45402;SDS011;47427;51.976;5.326;2023-03-01T03:21:39;20.90;;;16.80;;
45402;SDS011;47427;51.976;5.326;2023-03-01T03:25:02;23.38;;;16.80;;
45402;SDS011;47427;51.976;5.326;2023-03-01T03:28:23;22.77;;;17.65;;
45402;SDS011;47427;51.976;5.326;2023-03-01T03:31:46;27.38;;;18.85;;
45402;SDS011;47427;51.976;5.326;2023-03-01T03:35:08;23.00;;;17.88;;
45402;SDS011;47427;51.976;5.326;2023-03-01T03:38:32;24.45;;;18.88;;
45402;SDS011;47427;51.976;5.326;2023-03-01T03:41:55;25.75;;;18.52;;
45402;SDS011;47427;51.976;5.326;2023-03-01T03:45:16;27.88;;;19.70;;
45402;SDS011;47427;51.976;5.326;2023-03-01T03:48:41;29.80;;;20.08;;
45402;SDS011;47427;51.976;5.326;2023-03-01T03:52:06;28.42;;;21.70;;
45402;SDS011;47427;51.976;5.326;2023-03-01T03:55:35;29.05;;;19.88;;
45402;SDS011;47427;51.976;5.326;2023-03-01T04:02:22;22.83;;;18.52;;
45402;SDS011;47427;51.976;5.326;2023-03-01T04:05:46;27.02;;;18.60;;
45402;SDS011;47427;51.976;5.326;2023-03-01T04:09:30;28.67;;;19.55;;
45402;SDS011;47427;51.976;5.326;2023-03-01T04:12:52;25.88;;;18.95;;
45402;SDS011;47427;51.976;5.326;2023-03-01T04:16:23;26.95;;;19.88;;
45402;SDS011;47427;51.976;5.326;2023-03-01T04:19:45;28.75;;;20.15;;
45402;SDS011;47427;51.976;5.326;2023-03-01T04:23:14;29.48;;;18.30;;
45402;SDS011;47427;51.976;5.326;2023-03-01T04:26:40;35.30;;;20.77;;
45402;SDS011;47427;51.976;5.326;2023-03-01T04:30:05;25.58;;;18.33;;
45402;SDS011;47427;51.976;5.326;2023-03-01T04:33:30;28.92;;;17.83;;
45402;SDS011;47427;51.976;5.326;2023-03-01T04:36:52;26.27;;;19.65;;
45402;SDS011;47427;51.976;5.326;2023-03-01T04:40:15;24.50;;;18.30;;
45402;SDS011;47427;51.976;5.326;2023-03-01T04:43:38;24.33;;;18.10;;
45402;SDS011;47427;51.976;5.326;2023-03-01T04:47:00;26.80;;;18.15;;
45402;SDS011;47427;51.976;5.326;2023-03-01T04:50:23;26.35;;;16.38;;
45402;SDS011;47427;51.976;5.326;2023-03-01T04:53:46;24.92;;;17.08;;
45402;SDS011;47427;51.976;5.326;2023-03-01T04:57:09;20.63;;;16.90;;
45402;SDS011;47427;51.976;5.326;2023-03-01T05:00:31;24.08;;;16.90;;
45402;SDS011;47427;51.976;5.326;2023-03-01T05:03:53;24.30;;;15.73;;
45402;SDS011;47427;51.976;5.326;2023-03-01T05:07:15;22.98;;;16.90;;
45402;SDS011;47427;51.976;5.326;2023-03-01T05:10:40;20.77;;;15.27;;
45402;SDS011;47427;51.976;5.326;2023-03-01T05:14:03;23.40;;;14.82;;
45402;SDS011;47427;51.976;5.326;2023-03-01T05:17:27;19.60;;;15.53;;
45402;SDS011;47427;51.976;5.326;2023-03-01T05:20:49;24.88;;;15.23;;
45402;SDS011;47427;51.976;5.326;2023-03-01T05:24:12;20.77;;;14.48;;
45402;SDS011;47427;51.976;5.326;2023-03-01T05:27:35;21.67;;;15.77;;
45402;SDS011;47427;51.976;5.326;2023-03-01T05:30:57;19.73;;;15.68;;
45402;SDS011;47427;51.976;5.326;2023-03-01T05:34:38;24.23;;;14.63;;
45402;SDS011;47427;51.976;5.326;2023-03-01T05:38:01;23.30;;;16.70;;
45402;SDS011;47427;51.976;5.326;2023-03-01T05:41:22;22.73;;;17.05;;
45402;SDS011;47427;51.976;5.326;2023-03-01T05:44:45;21.13;;;16.15;;
45402;SDS011;47427;51.976;5.326;2023-03-01T05:48:07;20.30;;;16.10;;
45402;SDS011;47427;51.976;5.326;2023-03-01T05:51:31;22.83;;;16.77;;
45402;SDS011;47427;51.976;5.326;2023-03-01T05:54:55;21.90;;;15.95;;
45402;SDS011;47427;51.976;5.326;2023-03-01T05:58:18;23.17;;;15.55;;
45402;SDS011;47427;51.976;5.326;2023-03-01T06:01:41;22.00;;;16.30;;
45402;SDS011;47427;51.976;5.326;2023-03-01T06:05:06;19.00;;;14.10;;
45402;SDS011;47427;51.976;5.326;2023-03-01T06:08:29;22.10;;;14.90;;
45402;SDS011;47427;51.976;5.326;2023-03-01T06:12:10;21.73;;;16.52;;
45402;SDS011;47427;51.976;5.326;2023-03-01T06:15:33;22.77;;;16.75;;
45402;SDS011;47427;51.976;5.326;2023-03-01T06:18:56;22.98;;;17.23;;
45402;SDS011;47427;51.976;5.326;2023-03-01T06:22:18;18.40;;;15.80;;
45402;SDS011;47427;51.976;5.326;2023-03-01T06:25:40;17.42;;;15.15;;
45402;SDS011;47427;51.976;5.326;2023-03-01T06:29:03;25.08;;;16.30;;
45402;SDS011;47427;51.976;5.326;2023-03-01T06:32:25;20.73;;;15.43;;
45402;SDS011;47427;51.976;5.326;2023-03-01T06:35:47;24.85;;;17.38;;
45402;SDS011;47427;51.976;5.326;2023-03-01T06:39:09;19.85;;;16.88;;
45402;SDS011;47427;51.976;5.326;2023-03-01T06:42:31;22.65;;;17.48;;
45402;SDS011;47427;51.976;5.326;2023-03-01T06:45:54;19.02;;;15.38;;
45402;SDS011;47427;51.976;5.326;2023-03-01T06:49:17;25.23;;;17.40;;
45402;SDS011;47427;51.976;5.326;2023-03-01T06:52:40;19.58;;;15.80;;
45402;SDS011;47427;51.976;5.326;2023-03-01T06:56:03;25.17;;;17.73;;
45402;SDS011;47427;51.976;5.326;2023-03-01T06:59:26;33.40;;;23.60;;
45402;SDS011;47427;51.976;5.326;2023-03-01T07:02:48;26.60;;;18.00;;
45402;SDS011;47427;51.976;5.326;2023-03-01T07:06:10;24.20;;;19.35;;
45402;SDS011;47427;51.976;5.326;2023-03-01T07:09:33;18.55;;;16.20;;
45402;SDS011;47427;51.976;5.326;2023-03-01T07:12:57;23.25;;;18.17;;
45402;SDS011;47427;51.976;5.326;2023-03-01T07:16:21;24.25;;;17.70;;
45402;SDS011;47427;51.976;5.326;2023-03-01T07:19:42;23.33;;;18.45;;
45402;SDS011;47427;51.976;5.326;2023-03-01T07:23:06;30.13;;;21.20;;
45402;SDS011;47427;51.976;5.326;2023-03-01T07:26:29;47.30;;;27.40;;
45402;SDS011;47427;51.976;5.326;2023-03-01T07:29:51;43.70;;;28.15;;
45402;SDS011;47427;51.976;5.326;2023-03-01T07:33:13;36.38;;;23.92;;
45402;SDS011;47427;51.976;5.326;2023-03-01T07:36:37;37.58;;;24.98;;
45402;SDS011;47427;51.976;5.326;2023-03-01T07:40:00;26.98;;;19.48;;
45402;SDS011;47427;51.976;5.326;2023-03-01T07:43:22;21.90;;;17.95;;
45402;SDS011;47427;51.976;5.326;2023-03-01T07:46:44;19.42;;;15.77;;
45402;SDS011;47427;51.976;5.326;2023-03-01T07:50:07;16.60;;;14.27;;
45402;SDS011;47427;51.976;5.326;2023-03-01T07:53:31;14.20;;;12.70;;
45402;SDS011;47427;51.976;5.326;2023-03-01T07:56:55;14.07;;;12.70;;
45402;SDS011;47427;51.976;5.326;2023-03-01T08:00:19;14.60;;;13.20;;
45402;SDS011;47427;51.976;5.326;2023-03-01T08:03:42;13.80;;;12.60;;
45402;SDS011;47427;51.976;5.326;2023-03-01T08:07:05;14.40;;;12.93;;
45402;SDS011;47427;51.976;5.326;2023-03-01T08:10:27;14.50;;;13.07;;
45402;SDS011;47427;51.976;5.326;2023-03-01T08:13:49;13.80;;;12.43;;
45402;SDS011;47427;51.976;5.326;2023-03-01T08:17:13;13.93;;;12.50;;
45402;SDS011;47427;51.976;5.326;2023-03-01T08:20:36;13.40;;;12.18;;
45402;SDS011;47427;51.976;5.326;2023-03-01T08:23:57;13.07;;;11.77;;
45402;SDS011;47427;51.976;5.326;2023-03-01T08:27:20;11.93;;;10.85;;
45402;SDS011;47427;51.976;5.326;2023-03-01T08:30:43;11.88;;;10.38;;
45402;SDS011;47427;51.976;5.326;2023-03-01T08:34:06;13.98;;;11.20;;
45402;SDS011;47427;51.976;5.326;2023-03-01T08:37:31;15.48;;;11.73;;
45402;SDS011;47427;51.976;5.326;2023-03-01T08:40:53;12.18;;;10.98;;
45402;SDS011;47427;51.976;5.326;2023-03-01T08:44:16;12.18;;;11.07;;
45402;SDS011;47427;51.976;5.326;2023-03-01T08:47:57;12.20;;;10.65;;
45402;SDS011;47427;51.976;5.326;2023-03-01T08:51:21;12.45;;;11.25;;
45402;SDS011;47427;51.976;5.326;2023-03-01T08:54:47;11.57;;;10.57;;
45402;SDS011;47427;51.976;5.326;2023-03-01T08:58:09;12.73;;;10.90;;
45402;SDS011;47427;51.976;5.326;2023-03-01T09:01:32;12.40;;;11.10;;
45402;SDS011;47427;51.976;5.326;2023-03-01T09:04:55;12.48;;;10.40;;
45402;SDS011;47427;51.976;5.326;2023-03-01T09:08:17;14.02;;;11.65;;
45402;SDS011;47427;51.976;5.326;2023-03-01T09:11:40;12.32;;;11.05;;
45402;SDS011;47427;51.976;5.326;2023-03-01T09:15:05;12.77;;;11.38;;
45402;SDS011;47427;51.976;5.326;2023-03-01T09:18:27;14.73;;;11.30;;
45402;SDS011;47427;51.976;5.326;2023-03-01T09:21:50;12.50;;;11.20;;
45402;SDS011;47427;51.976;5.326;2023-03-01T09:28:39;11.57;;;10.55;;
45402;SDS011;47427;51.976;5.326;2023-03-01T09:32:06;11.23;;;10.23;;
45402;SDS011;47427;51.976;5.326;2023-03-01T09:35:28;10.88;;;9.80;;
45402;SDS011;47427;51.976;5.326;2023-03-01T09:38:51;11.77;;;10.38;;
45402;SDS011;47427;51.976;5.326;2023-03-01T09:42:34;10.77;;;9.77;;
45402;SDS011;47427;51.976;5.326;2023-03-01T09:45:58;11.77;;;8.48;;
45402;SDS011;47427;51.976;5.326;2023-03-01T09:49:35;9.07;;;8.02;;
45402;SDS011;47427;51.976;5.326;2023-03-01T09:53:05;12.75;;;8.40;;
45402;SDS011;47427;51.976;5.326;2023-03-01T09:56:46;9.10;;;8.30;;
45402;SDS011;47427;51.976;5.326;2023-03-01T10:07:48;8.48;;;7.78;;
45402;SDS011;47427;51.976;5.326;2023-03-01T10:11:44;9.00;;;8.10;;
45402;SDS011;47427;51.976;5.326;2023-03-01T10:15:14;10.10;;;9.20;;
45402;SDS011;47427;51.976;5.326;2023-03-01T10:18:46;9.95;;;8.38;;
45402;SDS011;47427;51.976;5.326;2023-03-01T10:22:20;10.15;;;9.18;;
45402;SDS011;47427;51.976;5.326;2023-03-01T10:26:05;10.30;;;8.68;;
45402;SDS011;47427;51.976;5.326;2023-03-01T10:29:31;9.57;;;8.68;;
45402;SDS011;47427;51.976;5.326;2023-03-01T10:33:29;10.00;;;7.95;;
45402;SDS011;47427;51.976;5.326;2023-03-01T10:37:18;9.85;;;7.78;;
45402;SDS011;47427;51.976;5.326;2023-03-01T10:48:13;8.82;;;7.93;;
45402;SDS011;47427;51.976;5.326;2023-03-01T10:51:37;9.82;;;8.82;;
45402;SDS011;47427;51.976;5.326;2023-03-01T10:55:02;9.35;;;8.57;;
45402;SDS011;47427;51.976;5.326;2023-03-01T10:58:38;9.63;;;8.60;;
45402;SDS011;47427;51.976;5.326;2023-03-01T11:02:28;8.95;;;8.15;;
45402;SDS011;47427;51.976;5.326;2023-03-01T11:09:22;9.32;;;8.35;;
45402;SDS011;47427;51.976;5.326;2023-03-01T11:12:45;8.10;;;7.47;;
45402;SDS011;47427;51.976;5.326;2023-03-01T11:16:07;9.25;;;8.27;;
45402;SDS011;47427;51.976;5.326;2023-03-01T11:23:13;8.95;;;8.07;;
45402;SDS011;47427;51.976;5.326;2023-03-01T11:26:36;8.23;;;7.63;;
45402;SDS011;47427;51.976;5.326;2023-03-01T11:33:41;10.95;;;9.98;;
45402;SDS011;47427;51.976;5.326;2023-03-01T11:37:28;8.80;;;8.00;;
45402;SDS011;47427;51.976;5.326;2023-03-01T11:44:33;11.30;;;10.25;;
45402;SDS011;47427;51.976;5.326;2023-03-01T11:48:14;10.00;;;9.02;;
45402;SDS011;47427;51.976;5.326;2023-03-01T11:52:26;10.70;;;9.63;;
45402;SDS011;47427;51.976;5.326;2023-03-01T11:56:27;21.33;;;18.70;;
45402;SDS011;47427;51.976;5.326;2023-03-01T12:00:14;15.57;;;13.18;;
45402;SDS011;47427;51.976;5.326;2023-03-01T12:08:17;11.95;;;10.82;;
45402;SDS011;47427;51.976;5.326;2023-03-01T12:31:44;9.07;;;8.38;;
45402;SDS011;47427;51.976;5.326;2023-03-01T12:35:37;9.05;;;8.32;;
45402;SDS011;47427;51.976;5.326;2023-03-01T12:50:40;11.05;;;9.90;;
45402;SDS011;47427;51.976;5.326;2023-03-01T12:54:16;10.93;;;10.02;;
45402;SDS011;47427;51.976;5.326;2023-03-01T12:57:51;10.20;;;9.30;;
45402;SDS011;47427;51.976;5.326;2023-03-01T13:13:14;9.13;;;8.50;;
45402;SDS011;47427;51.976;5.326;2023-03-01T13:16:41;9.90;;;9.10;;
45402;SDS011;47427;51.976;5.326;2023-03-01T13:20:11;9.93;;;9.13;;
45402;SDS011;47427;51.976;5.326;2023-03-01T13:23:37;9.43;;;8.25;;
45402;SDS011;47427;51.976;5.326;2023-03-01T13:33:59;9.23;;;8.35;;
45402;SDS011;47427;51.976;5.326;2023-03-01T13:37:32;8.70;;;8.10;;
45402;SDS011;47427;51.976;5.326;2023-03-01T13:40:58;9.93;;;9.05;;
45402;SDS011;47427;51.976;5.326;2023-03-01T13:44:32;9.50;;;8.80;;
45402;SDS011;47427;51.976;5.326;2023-03-01T13:48:02;11.10;;;10.10;;
45402;SDS011;47427;51.976;5.326;2023-03-01T13:51:30;10.95;;;9.80;;
45402;SDS011;47427;51.976;5.326;2023-03-01T13:54:51;10.65;;;9.65;;
45402;SDS011;47427;51.976;5.326;2023-03-01T13:58:16;13.70;;;12.35;;
45402;SDS011;47427;51.976;5.326;2023-03-01T14:01:59;9.20;;;8.43;;
45402;SDS011;47427;51.976;5.326;2023-03-01T14:05:23;9.32;;;8.50;;
45402;SDS011;47427;51.976;5.326;2023-03-01T14:08:47;9.52;;;8.73;;
45402;SDS011;47427;51.976;5.326;2023-03-01T14:12:14;9.73;;;8.93;;
45402;SDS011;47427;51.976;5.326;2023-03-01T14:23:43;8.60;;;7.90;;
45402;SDS011;47427;51.976;5.326;2023-03-01T14:27:10;8.05;;;7.45;;
45402;SDS011;47427;51.976;5.326;2023-03-01T14:30:50;9.50;;;8.32;;
45402;SDS011;47427;51.976;5.326;2023-03-01T14:34:20;9.43;;;7.82;;
45402;SDS011;47427;51.976;5.326;2023-03-01T14:37:44;8.32;;;7.63;;
45402;SDS011;47427;51.976;5.326;2023-03-01T14:41:14;9.68;;;8.77;;
45402;SDS011;47427;51.976;5.326;2023-03-01T14:44:45;8.50;;;7.72;;
45402;SDS011;47427;51.976;5.326;2023-03-01T14:48:10;8.88;;;8.07;;
45402;SDS011;47427;51.976;5.326;2023-03-01T14:51:35;9.65;;;7.93;;
45402;SDS011;47427;51.976;5.326;2023-03-01T14:55:05;9.85;;;8.82;;
45402;SDS011;47427;51.976;5.326;2023-03-01T14:58:42;8.90;;;8.10;;
45402;SDS011;47427;51.976;5.326;2023-03-01T15:02:08;8.98;;;8.20;;
45402;SDS011;47427;51.976;5.326;2023-03-01T15:05:40;8.32;;;7.72;;
45402;SDS011;47427;51.976;5.326;2023-03-01T15:09:05;8.73;;;8.02;;
45402;SDS011;47427;51.976;5.326;2023-03-01T15:12:40;8.80;;;7.90;;
45402;SDS011;47427;51.976;5.326;2023-03-01T15:16:12;8.98;;;8.18;;
45402;SDS011;47427;51.976;5.326;2023-03-01T15:19:53;8.48;;;7.78;;
45402;SDS011;47427;51.976;5.326;2023-03-01T15:23:27;9.00;;;8.10;;
45402;SDS011;47427;51.976;5.326;2023-03-01T15:26:53;9.18;;;8.35;;
45402;SDS011;47427;51.976;5.326;2023-03-01T15:30:23;8.57;;;7.88;;
45402;SDS011;47427;51.976;5.326;2023-03-01T15:37:45;10.93;;;8.38;;
45402;SDS011;47427;51.976;5.326;2023-03-01T15:41:22;10.48;;;9.38;;
45402;SDS011;47427;51.976;5.326;2023-03-01T15:48:37;11.68;;;10.52;;
45402;SDS011;47427;51.976;5.326;2023-03-01T15:52:00;13.20;;;10.13;;
45402;SDS011;47427;51.976;5.326;2023-03-01T15:55:23;9.15;;;8.25;;
45402;SDS011;47427;51.976;5.326;2023-03-01T15:58:51;9.40;;;8.50;;
45402;SDS011;47427;51.976;5.326;2023-03-01T16:02:14;10.13;;;9.05;;
45402;SDS011;47427;51.976;5.326;2023-03-01T16:05:35;10.05;;;8.38;;
45402;SDS011;47427;51.976;5.326;2023-03-01T16:08:57;13.70;;;10.68;;
45402;SDS011;47427;51.976;5.326;2023-03-01T16:12:18;14.25;;;12.25;;
45402;SDS011;47427;51.976;5.326;2023-03-01T16:15:41;12.25;;;10.90;;
45402;SDS011;47427;51.976;5.326;2023-03-01T16:19:05;10.98;;;9.98;;
45402;SDS011;47427;51.976;5.326;2023-03-01T16:22:27;17.40;;;13.43;;
45402;SDS011;47427;51.976;5.326;2023-03-01T16:26:09;11.77;;;9.82;;
45402;SDS011;47427;51.976;5.326;2023-03-01T16:29:33;11.02;;;9.88;;
45402;SDS011;47427;51.976;5.326;2023-03-01T16:32:54;10.05;;;8.95;;
45402;SDS011;47427;51.976;5.326;2023-03-01T16:36:35;10.23;;;9.23;;
45402;SDS011;47427;51.976;5.326;2023-03-01T16:39:58;11.68;;;10.07;;
45402;SDS011;47427;51.976;5.326;2023-03-01T16:43:21;11.70;;;9.45;;
45402;SDS011;47427;51.976;5.326;2023-03-01T16:46:44;29.63;;;21.63;;
45402;SDS011;47427;51.976;5.326;2023-03-01T16:50:06;18.77;;;14.77;;
45402;SDS011;47427;51.976;5.326;2023-03-01T16:53:29;12.48;;;9.98;;
45402;SDS011;47427;51.976;5.326;2023-03-01T16:56:52;9.82;;;8.80;;
45402;SDS011;47427;51.976;5.326;2023-03-01T17:00:13;11.63;;;10.38;;
45402;SDS011;47427;51.976;5.326;2023-03-01T17:03:37;11.63;;;7.90;;
45402;SDS011;47427;51.976;5.326;2023-03-01T17:06:59;14.93;;;9.60;;
45402;SDS011;47427;51.976;5.326;2023-03-01T17:10:21;12.27;;;9.82;;
45402;SDS011;47427;51.976;5.326;2023-03-01T17:13:44;10.80;;;9.20;;
45402;SDS011;47427;51.976;5.326;2023-03-01T17:17:08;11.70;;;8.50;;
45402;SDS011;47427;51.976;5.326;2023-03-01T17:20:31;10.65;;;9.55;;
45402;SDS011;47427;51.976;5.326;2023-03-01T17:23:55;15.80;;;8.65;;
45402;SDS011;47427;51.976;5.326;2023-03-01T17:27:17;10.77;;;8.38;;
45402;SDS011;47427;51.976;5.326;2023-03-01T17:30:41;10.45;;;8.43;;
45402;SDS011;47427;51.976;5.326;2023-03-01T17:34:04;11.52;;;10.40;;
45402;SDS011;47427;51.976;5.326;2023-03-01T17:37:27;10.45;;;9.30;;
45402;SDS011;47427;51.976;5.326;2023-03-01T17:40:50;11.45;;;8.75;;
45402;SDS011;47427;51.976;5.326;2023-03-01T17:44:13;12.25;;;8.48;;
45402;SDS011;47427;51.976;5.326;2023-03-01T17:47:34;10.68;;;9.40;;
45402;SDS011;47427;51.976;5.326;2023-03-01T17:50:57;17.20;;;13.50;;
45402;SDS011;47427;51.976;5.326;2023-03-01T17:54:18;14.98;;;11.15;;
45402;SDS011;47427;51.976;5.326;2023-03-01T17:57:41;11.60;;;8.70;;
45402;SDS011;47427;51.976;5.326;2023-03-01T18:01:11;17.92;;;12.88;;
45402;SDS011;47427;51.976;5.326;2023-03-01T18:04:36;20.65;;;15.23;;
45402;SDS011;47427;51.976;5.326;2023-03-01T18:07:58;17.70;;;12.45;;
45402;SDS011;47427;51.976;5.326;2023-03-01T18:11:22;17.70;;;12.38;;
45402;SDS011;47427;51.976;5.326;2023-03-01T18:14:45;21.23;;;15.45;;
45402;SDS011;47427;51.976;5.326;2023-03-01T18:18:09;17.50;;;14.02;;
45402;SDS011;47427;51.976;5.326;2023-03-01T18:21:30;18.13;;;13.75;;
45402;SDS011;47427;51.976;5.326;2023-03-01T18:24:53;12.80;;;11.48;;
45402;SDS011;47427;51.976;5.326;2023-03-01T18:28:16;13.27;;;11.32;;
45402;SDS011;47427;51.976;5.326;2023-03-01T18:31:38;19.52;;;10.95;;
45402;SDS011;47427;51.976;5.326;2023-03-01T18:35:01;14.40;;;11.55;;
45402;SDS011;47427;51.976;5.326;2023-03-01T18:38:24;14.27;;;11.45;;
45402;SDS011;47427;51.976;5.326;2023-03-01T18:41:45;15.40;;;12.25;;
45402;SDS011;47427;51.976;5.326;2023-03-01T18:45:54;14.82;;;12.15;;
45402;SDS011;47427;51.976;5.326;2023-03-01T18:49:17;13.18;;;11.07;;
45402;SDS011;47427;51.976;5.326;2023-03-01T18:52:39;14.27;;;11.18;;
45402;SDS011;47427;51.976;5.326;2023-03-01T18:56:01;12.77;;;10.38;;
45402;SDS011;47427;51.976;5.326;2023-03-01T18:59:24;12.05;;;9.18;;
45402;SDS011;47427;51.976;5.326;2023-03-01T19:02:46;12.45;;;10.38;;
45402;SDS011;47427;51.976;5.326;2023-03-01T19:06:08;11.90;;;9.80;;
45402;SDS011;47427;51.976;5.326;2023-03-01T19:09:31;13.25;;;10.10;;
45402;SDS011;47427;51.976;5.326;2023-03-01T19:12:54;13.15;;;9.90;;
45402;SDS011;47427;51.976;5.326;2023-03-01T19:16:16;10.95;;;9.85;;
45402;SDS011;47427;51.976;5.326;2023-03-01T19:19:43;10.93;;;9.77;;
45402;SDS011;47427;51.976;5.326;2023-03-01T19:23:04;14.98;;;10.88;;
45402;SDS011;47427;51.976;5.326;2023-03-01T19:26:27;24.85;;;16.27;;
45402;SDS011;47427;51.976;5.326;2023-03-01T19:29:51;31.65;;;21.35;;
45402;SDS011;47427;51.976;5.326;2023-03-01T19:33:12;40.13;;;28.60;;
45402;SDS011;47427;51.976;5.326;2023-03-01T19:36:35;47.58;;;32.78;;
45402;SDS011;47427;51.976;5.326;2023-03-01T19:39:57;49.25;;;32.22;;
45402;SDS011;47427;51.976;5.326;2023-03-01T19:43:19;54.03;;;35.38;;
45402;SDS011;47427;51.976;5.326;2023-03-01T19:46:42;48.40;;;33.60;;
45402;SDS011;47427;51.976;5.326;2023-03-01T19:50:05;48.50;;;34.92;;
45402;SDS011;47427;51.976;5.326;2023-03-01T19:53:26;60.95;;;42.00;;
45402;SDS011;47427;51.976;5.326;2023-03-01T19:56:49;87.38;;;59.15;;
45402;SDS011;47427;51.976;5.326;2023-03-01T20:00:11;96.93;;;63.20;;
45402;SDS011;47427;51.976;5.326;2023-03-01T20:03:35;93.97;;;61.03;;
45402;SDS011;47427;51.976;5.326;2023-03-01T20:06:58;91.82;;;58.30;;
45402;SDS011;47427;51.976;5.326;2023-03-01T20:10:20;89.97;;;57.15;;
45402;SDS011;47427;51.976;5.326;2023-03-01T20:13:42;88.65;;;57.30;;
45402;SDS011;47427;51.976;5.326;2023-03-01T20:17:05;83.60;;;55.88;;
45402;SDS011;47427;51.976;5.326;2023-03-01T20:20:27;84.35;;;54.67;;
45402;SDS011;47427;51.976;5.326;2023-03-01T20:23:50;80.00;;;52.00;;
45402;SDS011;47427;51.976;5.326;2023-03-01T20:27:11;70.20;;;45.88;;
45402;SDS011;47427;51.976;5.326;2023-03-01T20:30:36;62.78;;;40.15;;
45402;SDS011;47427;51.976;5.326;2023-03-01T20:33:59;51.93;;;32.97;;
45402;SDS011;47427;51.976;5.326;2023-03-01T20:37:21;38.45;;;27.17;;
45402;SDS011;47427;51.976;5.326;2023-03-01T20:40:43;34.20;;;23.35;;
45402;SDS011;47427;51.976;5.326;2023-03-01T20:44:06;29.40;;;20.13;;
45402;SDS011;47427;51.976;5.326;2023-03-01T20:47:29;22.75;;;17.58;;
45402;SDS011;47427;51.976;5.326;2023-03-01T20:50:51;25.38;;;18.20;;
45402;SDS011;47427;51.976;5.326;2023-03-01T20:54:13;25.25;;;17.80;;
45402;SDS011;47427;51.976;5.326;2023-03-01T20:57:36;27.42;;;18.67;;
45402;SDS011;47427;51.976;5.326;2023-03-01T21:01:18;24.85;;;18.52;;
45402;SDS011;47427;51.976;5.326;2023-03-01T21:04:45;23.33;;;16.15;;
45402;SDS011;47427;51.976;5.326;2023-03-01T21:08:08;22.30;;;15.88;;
45402;SDS011;47427;51.976;5.326;2023-03-01T21:11:29;19.25;;;14.35;;
45402;SDS011;47427;51.976;5.326;2023-03-01T21:14:51;21.25;;;14.32;;
45402;SDS011;47427;51.976;5.326;2023-03-01T21:18:13;21.05;;;14.52;;
45402;SDS011;47427;51.976;5.326;2023-03-01T21:21:35;22.33;;;14.77;;
45402;SDS011;47427;51.976;5.326;2023-03-01T21:24:58;21.27;;;15.15;;
45402;SDS011;47427;51.976;5.326;2023-03-01T21:28:20;19.85;;;14.70;;
45402;SDS011;47427;51.976;5.326;2023-03-01T21:31:42;22.90;;;15.43;;
45402;SDS011;47427;51.976;5.326;2023-03-01T21:35:05;22.10;;;15.98;;
45402;SDS011;47427;51.976;5.326;2023-03-01T21:38:29;19.15;;;13.43;;
45402;SDS011;47427;51.976;5.326;2023-03-01T21:41:56;18.33;;;13.45;;
45402;SDS011;47427;51.976;5.326;2023-03-01T21:45:21;18.45;;;13.88;;
45402;SDS011;47427;51.976;5.326;2023-03-01T21:48:45;22.45;;;14.25;;
45402;SDS011;47427;51.976;5.326;2023-03-01T21:52:09;17.73;;;13.18;;
45402;SDS011;47427;51.976;5.326;2023-03-01T21:55:37;24.85;;;14.73;;
45402;SDS011;47427;51.976;5.326;2023-03-01T21:59:09;18.02;;;12.77;;
45402;SDS011;47427;51.976;5.326;2023-03-01T22:02:36;21.58;;;13.98;;
45402;SDS011;47427;51.976;5.326;2023-03-01T22:05:58;14.93;;;12.63;;
45402;SDS011;47427;51.976;5.326;2023-03-01T22:09:22;19.52;;;13.90;;
45402;SDS011;47427;51.976;5.326;2023-03-01T22:12:45;15.93;;;12.35;;
45402;SDS011;47427;51.976;5.326;2023-03-01T22:16:07;17.65;;;13.23;;
45402;SDS011;47427;51.976;5.326;2023-03-01T22:19:30;17.42;;;14.27;;
45402;SDS011;47427;51.976;5.326;2023-03-01T22:22:53;24.80;;;16.15;;